createdAt,value
2019-04-21T00:01:20.368Z,19.77
2019-04-21T00:03:56.720Z,17.63
2019-04-21T00:06:41.205Z,18.80
2019-04-21T00:09:19.224Z,18.37
2019-04-21T00:11:40.869Z,18.80
2019-04-21T00:14:06.080Z,19.03
2019-04-21T00:16:34.689Z,20.77
2019-04-21T00:19:10.767Z,21.37
2019-04-21T00:21:43.683Z,12.53
2019-04-21T00:24:24.255Z,18.97
2019-04-21T00:27:03.765Z,13.47
2019-04-21T00:29:38.527Z,12.57
2019-04-21T00:32:00.665Z,12.87
2019-04-21T00:34:17.710Z,13.17
2019-04-21T00:37:01.195Z,10.23
2019-04-21T00:39:48.994Z,9.80
2019-04-21T00:42:09.782Z,13.83
2019-04-21T00:44:29.831Z,10.40
2019-04-21T00:47:05.509Z,13.53
2019-04-21T00:49:42.712Z,16.00
2019-04-21T00:52:51.487Z,13.03
2019-04-21T00:55:30.942Z,12.00
2019-04-21T00:57:58.579Z,13.47
2019-04-21T01:02:57.711Z,14.53
2019-04-21T01:05:30.122Z,10.87
2019-04-21T01:08:01.102Z,14.03
2019-04-21T01:10:24.468Z,11.83
2019-04-21T01:13:04.017Z,12.37
2019-04-21T01:15:37.387Z,11.00
2019-04-21T01:18:04.840Z,14.87
2019-04-21T01:20:17.693Z,14.27
2019-04-21T01:22:46.519Z,12.00
2019-04-21T01:25:22.885Z,18.07
2019-04-21T01:28:03.866Z,11.63
2019-04-21T01:30:39.934Z,13.43
2019-04-21T01:33:12.389Z,12.83
2019-04-21T01:35:39.790Z,14.23
2019-04-21T01:38:19.577Z,11.07
2019-04-21T01:40:47.683Z,13.57
2019-04-21T01:43:13.593Z,19.73
2019-04-21T01:45:47.299Z,15.50
2019-04-21T01:48:12.884Z,12.80
2019-04-21T01:50:47.034Z,14.67
2019-04-21T01:53:30.701Z,12.03
2019-04-21T01:56:03.370Z,17.67
2019-04-21T01:58:28.814Z,10.20
2019-04-21T02:01:05.677Z,15.17
2019-04-21T02:03:52.551Z,14.60
2019-04-21T02:06:18.513Z,15.33
2019-04-21T02:08:44.241Z,11.67
2019-04-21T02:11:19.124Z,16.33
2019-04-21T02:13:53.535Z,9.17
2019-04-21T02:16:19.024Z,14.47
2019-04-21T02:18:52.958Z,12.30
2019-04-21T02:21:18.150Z,14.73
2019-04-21T02:24:01.633Z,15.83
2019-04-21T02:26:26.671Z,14.40
2019-04-21T02:29:03.189Z,16.90
2019-04-21T02:31:37.641Z,20.23
2019-04-21T02:34:09.136Z,14.03
2019-04-21T02:39:16.701Z,19.97
2019-04-21T02:41:46.997Z,17.63
2019-04-21T02:44:30.320Z,17.33
2019-04-21T02:49:27.498Z,19.60
2019-04-21T02:51:54.460Z,17.80
2019-04-21T02:54:45.758Z,21.13
2019-04-21T03:05:11.543Z,25.03
2019-04-21T03:07:46.402Z,16.00
2019-04-21T03:10:11.540Z,19.83
2019-04-21T03:12:38.636Z,15.00
2019-04-21T03:15:33.211Z,15.07
2019-04-21T03:17:52.699Z,17.93
2019-04-21T03:23:02.087Z,14.47
2019-04-21T03:25:33.194Z,20.60
2019-04-21T03:28:00.692Z,19.80
2019-04-21T03:30:47.713Z,16.67
2019-04-21T03:36:00.797Z,18.00
2019-04-21T03:38:00.212Z,18.33
2019-04-21T03:40:24.067Z,18.90
2019-04-21T03:42:57.778Z,41.37
2019-04-21T03:45:30.675Z,18.17
2019-04-21T03:50:39.562Z,21.67
2019-04-21T03:53:03.111Z,35.30
2019-04-21T04:00:59.499Z,19.57
2019-04-21T04:06:43.201Z,17.47
2019-04-21T04:09:21.277Z,17.77
2019-04-21T04:11:54.802Z,18.43
2019-04-21T04:16:58.523Z,23.00
2019-04-21T04:19:18.645Z,23.23
2019-04-21T04:21:57.496Z,24.40
2019-04-21T04:24:36.395Z,25.30
2019-04-21T04:26:57.021Z,23.10
2019-04-21T04:31:47.398Z,28.70
2019-04-21T04:37:05.989Z,27.23
2019-04-21T04:40:10.561Z,28.83
2019-04-21T04:47:59.855Z,24.77
2019-04-21T04:50:35.822Z,21.40
2019-04-21T04:53:12.697Z,27.50
2019-04-21T04:55:29.583Z,25.00
2019-04-21T05:02:58.783Z,23.40
2019-04-21T05:05:26.864Z,24.10
2019-04-21T05:08:39.521Z,28.50
2019-04-21T05:10:38.532Z,21.37
2019-04-21T05:13:02.234Z,22.10
2019-04-21T05:15:23.668Z,22.63
2019-04-21T05:18:04.933Z,28.13
2019-04-21T05:20:37.034Z,17.57
2019-04-21T05:23:00.552Z,22.80
2019-04-21T05:25:31.094Z,24.13
2019-04-21T05:27:56.928Z,28.00
2019-04-21T05:30:52.008Z,26.33
2019-04-21T05:33:33.946Z,23.53
2019-04-21T05:36:11.012Z,28.67
2019-04-21T05:39:01.199Z,25.30
2019-04-21T05:41:22.101Z,23.70
2019-04-21T05:44:05.074Z,22.27
2019-04-21T05:46:42.514Z,24.90
2019-04-21T05:49:11.018Z,24.60
2019-04-21T05:51:57.494Z,27.53
2019-04-21T05:54:40.908Z,20.40
2019-04-21T05:57:02.544Z,31.60
2019-04-21T05:59:33.965Z,24.50
2019-04-21T06:02:15.106Z,24.60
2019-04-21T06:07:13.242Z,26.40
2019-04-21T06:09:44.105Z,23.43
2019-04-21T06:12:10.777Z,22.70
2019-04-21T06:14:49.429Z,21.20
2019-04-21T06:17:19.784Z,18.63
2019-04-21T06:19:49.529Z,20.50
2019-04-21T06:22:14.802Z,22.50
2019-04-21T06:25:10.978Z,23.33
2019-04-21T06:27:29.888Z,24.07
2019-04-21T06:29:54.645Z,20.93
2019-04-21T06:40:15.240Z,20.77
2019-04-21T06:42:32.663Z,20.03
2019-04-21T06:45:05.950Z,25.40
2019-04-21T06:50:12.180Z,21.53
2019-04-21T06:52:50.110Z,23.27
2019-04-21T06:55:13.856Z,18.57
2019-04-21T06:57:44.445Z,19.10
2019-04-21T07:00:11.761Z,23.43
2019-04-21T07:05:18.157Z,19.27
2019-04-21T07:07:54.930Z,18.03
2019-04-21T07:10:14.133Z,18.40
2019-04-21T07:12:44.924Z,17.73
2019-04-21T07:15:19.518Z,20.67
2019-04-21T07:17:54.739Z,13.97
2019-04-21T07:20:21.987Z,17.37
2019-04-21T07:22:56.473Z,16.00
2019-04-21T07:25:28.183Z,15.60
2019-04-21T07:27:59.322Z,15.33
2019-04-21T07:30:31.728Z,14.10
2019-04-21T07:33:07.557Z,16.77
2019-04-21T07:35:32.184Z,17.37
2019-04-21T07:38:01.267Z,15.03
2019-04-21T07:40:28.613Z,15.33
2019-04-21T07:43:01.339Z,15.50
2019-04-21T07:45:33.414Z,15.43
2019-04-21T07:48:14.002Z,15.03
2019-04-21T07:50:52.071Z,17.40
2019-04-21T07:53:27.756Z,12.10
2019-04-21T07:55:37.427Z,13.87
2019-04-21T07:58:26.225Z,17.17
2019-04-21T08:01:07.420Z,14.33
2019-04-21T08:03:30.009Z,15.37
2019-04-21T08:08:26.581Z,13.63
2019-04-21T08:11:07.739Z,12.27
2019-04-21T08:16:04.700Z,15.37
2019-04-21T08:21:05.802Z,15.67
2019-04-21T08:23:39.926Z,19.67
2019-04-21T08:26:10.387Z,14.83
2019-04-21T08:31:13.995Z,19.33
2019-04-21T08:33:47.037Z,20.43
2019-04-21T08:38:48.429Z,17.53
2019-04-21T08:41:12.324Z,14.70
2019-04-21T08:43:51.403Z,12.40
2019-04-21T08:46:18.924Z,15.20
2019-04-21T08:51:30.167Z,16.30
2019-04-21T08:53:53.715Z,19.87
2019-04-21T08:56:43.195Z,20.57
2019-04-21T08:59:31.183Z,15.10
2019-04-21T09:02:29.801Z,11.97
2019-04-21T09:05:03.414Z,17.27
2019-04-21T09:07:36.205Z,20.77
2019-04-21T09:09:58.046Z,14.73
2019-04-21T09:12:33.134Z,16.23
2019-04-21T09:15:01.561Z,13.43
2019-04-21T09:17:28.569Z,17.47
2019-04-21T09:20:13.977Z,14.37
2019-04-21T09:22:37.701Z,10.63
2019-04-21T09:25:01.498Z,14.67
2019-04-21T09:27:39.417Z,14.40
2019-04-21T09:29:57.175Z,10.63
2019-04-21T09:32:25.731Z,10.33
2019-04-21T09:34:53.464Z,9.27
2019-04-21T09:37:37.177Z,11.93
2019-04-21T09:39:57.314Z,9.77
2019-04-21T09:42:33.310Z,8.93
2019-04-21T09:45:00.867Z,9.57
2019-04-21T09:47:35.123Z,8.63
2019-04-21T09:50:01.818Z,14.10
2019-04-21T09:52:39.664Z,11.37
2019-04-21T09:55:08.295Z,13.93
2019-04-21T09:57:41.501Z,10.00
2019-04-21T10:00:11.362Z,9.07
2019-04-21T10:02:42.765Z,8.27
2019-04-21T10:05:07.664Z,10.03
2019-04-21T10:07:41.937Z,10.03
2019-04-21T10:10:08.441Z,10.57
2019-04-21T10:12:37.862Z,7.43
2019-04-21T10:15:08.584Z,8.43
2019-04-21T10:17:45.079Z,6.33
2019-04-21T10:20:14.895Z,6.70
2019-04-21T10:22:44.787Z,7.80
2019-04-21T10:25:14.876Z,11.13
2019-04-21T10:27:45.261Z,7.03
2019-04-21T10:30:16.244Z,9.40
2019-04-21T10:32:46.026Z,9.80
2019-04-21T10:35:18.176Z,7.80
2019-04-21T10:37:58.156Z,5.30
2019-04-21T10:40:19.568Z,9.63
2019-04-21T10:42:49.970Z,5.43
2019-04-21T10:45:19.467Z,5.97
2019-04-21T10:47:49.366Z,6.40
2019-04-21T10:50:18.807Z,6.47
2019-04-21T10:53:16.708Z,4.73
2019-04-21T10:56:01.582Z,4.97
2019-04-21T10:58:22.528Z,5.97
2019-04-21T11:00:55.703Z,5.37
2019-04-21T11:03:36.907Z,6.83
2019-04-21T11:06:08.511Z,4.57
2019-04-21T11:08:43.344Z,5.17
2019-04-21T11:11:10.007Z,4.43
2019-04-21T11:13:40.950Z,7.77
2019-04-21T11:16:10.986Z,6.30
2019-04-21T11:18:41.952Z,5.90
2019-04-21T11:21:13.105Z,6.07
2019-04-21T11:23:43.860Z,9.47
2019-04-21T11:26:13.922Z,8.60
2019-04-21T11:28:43.347Z,7.80
2019-04-21T11:31:15.677Z,9.07
2019-04-21T11:33:45.494Z,6.20
2019-04-21T11:36:15.427Z,10.57
2019-04-21T11:39:06.049Z,7.37
2019-04-21T11:41:21.896Z,6.40
2019-04-21T11:43:51.411Z,8.13
2019-04-21T11:46:20.821Z,9.83
2019-04-21T11:48:50.461Z,8.10
2019-04-21T11:51:19.985Z,6.90
2019-04-21T11:53:50.694Z,10.17
2019-04-21T11:56:20.912Z,5.90
2019-04-21T11:58:50.272Z,7.27
2019-04-21T12:01:19.642Z,11.77
2019-04-21T12:03:49.613Z,11.63
2019-04-21T12:06:19.479Z,9.90
2019-04-21T12:08:51.518Z,11.27
2019-04-21T12:11:21.028Z,8.60
2019-04-21T12:13:50.416Z,10.10
2019-04-21T12:16:21.033Z,10.83
2019-04-21T12:18:50.998Z,6.50
2019-04-21T12:21:23.271Z,9.00
2019-04-21T12:23:54.400Z,6.40
2019-04-21T12:26:24.169Z,6.87
2019-04-21T12:28:53.692Z,6.53
2019-04-21T12:31:45.568Z,8.83
2019-04-21T12:34:16.159Z,8.03
2019-04-21T12:36:46.506Z,8.17
2019-04-21T12:39:16.847Z,12.50
2019-04-21T12:41:46.697Z,7.77
2019-04-21T12:44:16.181Z,17.27
2019-04-21T12:46:45.673Z,7.73
2019-04-21T12:49:15.941Z,8.43
2019-04-21T12:51:46.111Z,45.80
2019-04-21T12:54:15.588Z,11.57
2019-04-21T12:56:45.610Z,7.60
2019-04-21T12:59:17.333Z,8.57
2019-04-21T13:01:46.719Z,5.97
2019-04-21T13:04:16.133Z,9.77
2019-04-21T13:06:45.873Z,7.27
2019-04-21T13:09:19.785Z,6.70
2019-04-21T13:11:47.016Z,7.53
2019-04-21T13:14:17.869Z,10.77
2019-04-21T13:16:47.837Z,9.13
2019-04-21T13:19:17.668Z,23.53
2019-04-21T13:21:47.910Z,24.63
2019-04-21T13:24:17.852Z,16.13
2019-04-21T13:26:53.619Z,8.23
2019-04-21T13:29:18.671Z,7.07
2019-04-21T13:31:48.272Z,6.60
2019-04-21T13:34:18.008Z,6.33
2019-04-21T13:36:47.788Z,8.87
2019-04-21T13:39:55.536Z,7.33
2019-04-21T13:42:16.068Z,15.43
2019-04-21T13:44:37.122Z,11.27
2019-04-21T13:47:07.036Z,8.50
2019-04-21T13:49:37.145Z,10.50
2019-04-21T13:52:06.784Z,8.73
2019-04-21T13:54:36.207Z,7.87
2019-04-21T13:57:05.870Z,10.80
2019-04-21T13:59:36.344Z,6.53
2019-04-21T14:02:06.913Z,47.07
2019-04-21T14:04:37.765Z,10.70
2019-04-21T14:07:08.190Z,7.87
2019-04-21T14:09:47.650Z,10.70
2019-04-21T14:12:09.660Z,7.10
2019-04-21T14:14:39.004Z,9.47
2019-04-21T14:17:08.901Z,6.63
2019-04-21T14:19:39.419Z,9.83
2019-04-21T14:22:11.667Z,8.20
2019-04-21T14:24:41.535Z,12.33
2019-04-21T14:27:12.140Z,8.17
2019-04-21T14:29:41.809Z,10.20
2019-04-21T14:32:11.208Z,7.73
2019-04-21T14:34:41.985Z,8.67
2019-04-21T14:37:12.928Z,8.83
2019-04-21T14:39:52.764Z,9.30
2019-04-21T14:42:14.119Z,8.80
2019-04-21T14:44:45.065Z,16.30
2019-04-21T14:47:34.979Z,11.23
2019-04-21T14:50:24.506Z,9.80
2019-04-21T14:53:13.838Z,13.33
2019-04-21T14:55:45.795Z,10.13
2019-04-21T14:58:15.487Z,9.83
2019-04-21T15:01:02.165Z,7.30
2019-04-21T15:03:32.079Z,10.57
2019-04-21T15:06:01.541Z,11.70
2019-04-21T15:08:31.338Z,10.40
2019-04-21T15:11:01.138Z,8.60
2019-04-21T15:13:32.189Z,7.33
2019-04-21T15:16:02.748Z,9.00
2019-04-21T15:18:32.811Z,10.87
2019-04-21T15:21:03.614Z,10.33
2019-04-21T15:23:33.953Z,8.53
2019-04-21T15:26:04.159Z,8.83
2019-04-21T15:28:35.717Z,11.50
2019-04-21T15:31:05.117Z,8.87
2019-04-21T15:33:34.953Z,7.73
2019-04-21T15:36:05.101Z,9.03
2019-04-21T15:38:35.831Z,8.47
2019-04-21T15:41:10.085Z,11.50
2019-04-21T15:43:36.806Z,11.73
2019-04-21T15:46:06.779Z,10.30
2019-04-21T15:48:37.044Z,7.83
2019-04-21T15:51:08.531Z,9.10
2019-04-21T15:53:37.935Z,8.03
2019-04-21T15:56:30.962Z,10.63
2019-04-21T15:59:08.386Z,14.77
2019-04-21T16:01:46.415Z,9.63
2019-04-21T16:04:16.818Z,10.67
2019-04-21T16:06:47.729Z,9.37
2019-04-21T16:09:21.598Z,8.70
2019-04-21T16:11:49.748Z,10.27
2019-04-21T16:14:20.502Z,11.33
2019-04-21T16:16:51.621Z,8.80
2019-04-21T16:19:21.199Z,12.90
2019-04-21T16:22:01.121Z,11.97
2019-04-21T16:24:33.575Z,8.97
2019-04-21T16:27:08.442Z,13.43
2019-04-21T16:29:39.519Z,10.93
2019-04-21T16:32:09.297Z,10.23
2019-04-21T16:34:48.355Z,9.67
2019-04-21T16:37:11.841Z,11.00
2019-04-21T16:39:41.620Z,8.27
2019-04-21T16:42:12.064Z,7.53
2019-04-21T16:44:42.873Z,11.00
2019-04-21T16:47:13.807Z,7.73
2019-04-21T16:49:43.703Z,9.30
2019-04-21T16:52:20.445Z,9.27
2019-04-21T16:54:58.334Z,8.07
2019-04-21T16:57:35.721Z,8.47
2019-04-21T17:00:10.718Z,8.53
2019-04-21T17:02:40.877Z,9.87
2019-04-21T17:05:12.512Z,10.43
2019-04-21T17:07:43.027Z,10.07
2019-04-21T17:10:12.852Z,9.23
2019-04-21T17:12:43.270Z,15.40
2019-04-21T17:15:29.393Z,12.50
2019-04-21T17:18:06.308Z,8.60
2019-04-21T17:20:33.375Z,14.07
2019-04-21T17:22:51.489Z,10.37
2019-04-21T17:25:24.921Z,21.47
2019-04-21T17:27:54.603Z,27.80
2019-04-21T17:30:24.341Z,25.77
2019-04-21T17:32:55.385Z,24.83
2019-04-21T17:35:24.929Z,24.67
2019-04-21T17:37:54.453Z,35.20
2019-04-21T17:40:24.244Z,38.50
2019-04-21T17:43:02.024Z,36.03
2019-04-21T17:45:25.299Z,35.23
2019-04-21T17:48:02.487Z,34.07
2019-04-21T17:50:47.373Z,38.33
2019-04-21T17:53:26.532Z,37.17
2019-04-21T17:56:15.283Z,38.00
2019-04-21T17:58:46.330Z,41.07
2019-04-21T18:01:19.581Z,37.77
2019-04-21T18:03:54.386Z,47.37
2019-04-21T18:06:14.267Z,38.47
2019-04-21T18:08:55.204Z,41.37
2019-04-21T18:11:12.673Z,33.53
2019-04-21T18:13:35.284Z,36.53
2019-04-21T18:16:15.841Z,29.93
2019-04-21T18:18:36.840Z,31.37
2019-04-21T18:21:16.752Z,30.80
2019-04-21T18:23:57.340Z,27.63
2019-04-21T18:26:28.889Z,24.27
2019-04-21T18:28:53.849Z,27.73
2019-04-21T18:31:22.993Z,25.67
2019-04-21T18:34:06.100Z,29.13
2019-04-21T18:36:59.402Z,26.00
2019-04-21T18:39:46.085Z,25.77
2019-04-21T18:42:45.384Z,28.03
2019-04-21T18:45:55.368Z,25.35
2019-04-21T18:48:19.073Z,19.02
2019-04-21T18:50:55.330Z,30.27
2019-04-21T18:53:37.855Z,23.60
2019-04-21T18:56:00.102Z,30.12
2019-04-21T18:58:26.483Z,30.73
2019-04-21T19:01:03.191Z,35.27
2019-04-21T19:03:35.796Z,40.00
2019-04-21T19:06:08.720Z,38.17
2019-04-21T19:08:53.389Z,39.70
2019-04-21T19:11:25.069Z,39.93
2019-04-21T19:14:32.294Z,27.17
2019-04-21T19:19:34.089Z,32.70
2019-04-21T19:21:40.597Z,25.33
2019-04-21T19:24:24.314Z,35.00
2019-04-21T19:26:54.658Z,27.87
2019-04-21T19:29:23.977Z,30.50
2019-04-21T19:31:49.306Z,25.43
2019-04-21T19:34:11.401Z,23.13
2019-04-21T19:36:34.451Z,16.40
2019-04-21T19:39:13.490Z,17.37
2019-04-21T19:41:50.996Z,18.33
2019-04-21T19:44:26.224Z,21.17
2019-04-21T19:47:05.211Z,21.33
2019-04-21T19:49:38.283Z,21.07
2019-04-21T19:51:54.049Z,24.17
2019-04-21T19:54:25.188Z,19.77
2019-04-21T19:56:49.080Z,21.67
2019-04-21T19:59:30.658Z,24.90
2019-04-21T20:01:51.322Z,21.20
2019-04-21T20:04:31.530Z,22.50
2019-04-21T20:07:03.009Z,19.87
2019-04-21T20:09:39.611Z,18.03
2019-04-21T20:12:10.687Z,20.17
2019-04-21T20:14:55.333Z,21.63
2019-04-21T20:17:09.969Z,23.30
2019-04-21T20:19:28.222Z,18.47
2019-04-21T20:21:59.009Z,16.43
2019-04-21T20:24:32.039Z,14.93
2019-04-21T20:27:07.892Z,17.17
2019-04-21T20:29:52.531Z,15.03
2019-04-21T20:32:26.695Z,21.53
2019-04-21T20:34:56.191Z,14.53
2019-04-21T20:37:29.717Z,14.33
2019-04-21T20:39:46.208Z,17.20
2019-04-21T20:42:21.157Z,15.30
2019-04-21T20:45:16.117Z,16.87
2019-04-21T20:47:22.874Z,18.57
2019-04-21T20:49:58.523Z,17.33
2019-04-21T20:52:38.422Z,20.47
2019-04-21T20:54:59.757Z,13.20
2019-04-21T20:57:32.853Z,15.77
2019-04-21T21:00:07.104Z,11.97
2019-04-21T21:02:41.713Z,10.73
2019-04-21T21:05:00.704Z,13.23
2019-04-21T21:10:10.666Z,11.87
2019-04-21T21:12:51.161Z,12.87
2019-04-21T21:15:03.408Z,14.30
2019-04-21T21:20:21.241Z,13.13
2019-04-21T21:22:42.334Z,14.67
2019-04-21T21:25:23.475Z,24.07
2019-04-21T21:27:41.870Z,20.53
2019-04-21T21:30:15.683Z,20.10
2019-04-21T21:32:50.861Z,21.03
2019-04-21T21:35:20.567Z,23.03
2019-04-21T21:37:54.884Z,18.70
2019-04-21T21:40:26.847Z,27.77
2019-04-21T21:42:43.797Z,25.17
2019-04-21T21:45:17.235Z,22.40
2019-04-21T21:48:04.636Z,26.37
2019-04-21T21:50:23.314Z,23.87
2019-04-21T21:52:57.634Z,21.80
2019-04-21T21:55:15.934Z,18.77
2019-04-21T21:57:50.365Z,27.63
2019-04-21T22:00:17.530Z,29.87
2019-04-21T22:02:51.315Z,25.03
2019-04-21T22:05:24.350Z,25.00
2019-04-21T22:07:52.167Z,20.30
2019-04-21T22:10:23.172Z,24.50
2019-04-21T22:13:00.753Z,24.87
2019-04-21T22:15:26.798Z,21.67
2019-04-21T22:18:19.400Z,23.07
2019-04-21T22:20:44.588Z,23.37
2019-04-21T22:23:06.402Z,18.53
2019-04-21T22:25:33.377Z,21.10
2019-04-21T22:27:59.999Z,16.23
2019-04-21T22:30:38.190Z,18.70
2019-04-21T22:33:06.265Z,17.63
2019-04-21T22:35:38.639Z,16.37
2019-04-21T22:38:19.097Z,21.97
2019-04-21T22:40:46.609Z,24.40
2019-04-21T22:43:16.820Z,18.17
2019-04-21T22:45:36.018Z,20.57
2019-04-21T22:48:13.603Z,16.83
2019-04-21T22:50:38.334Z,13.83
2019-04-21T22:53:10.136Z,13.40
2019-04-21T22:55:39.136Z,11.83
2019-04-21T22:58:09.595Z,16.67
2019-04-21T23:00:46.431Z,20.80
2019-04-21T23:03:17.342Z,14.67
2019-04-21T23:05:44.454Z,13.43
2019-04-21T23:08:13.109Z,16.20
2019-04-21T23:10:52.351Z,16.17
2019-04-21T23:13:18.287Z,16.20
2019-04-21T23:15:51.215Z,16.03
2019-04-21T23:18:30.801Z,13.60
2019-04-21T23:21:03.374Z,16.80
2019-04-21T23:23:42.222Z,17.60
2019-04-21T23:26:09.156Z,13.03
2019-04-21T23:28:40.304Z,12.20
2019-04-21T23:31:12.550Z,13.50
2019-04-21T23:33:23.881Z,12.80
2019-04-21T23:36:05.204Z,13.37
2019-04-21T23:38:30.228Z,13.87
2019-04-21T23:40:59.951Z,16.50
2019-04-21T23:43:30.047Z,15.37
2019-04-21T23:46:04.259Z,17.13
2019-04-21T23:48:43.834Z,17.00
2019-04-21T23:51:13.859Z,15.53
2019-04-21T23:53:33.286Z,14.57
2019-04-21T23:56:03.451Z,17.03
2019-04-21T23:58:35.213Z,20.53
